sensor_id;sensor_type;location;lat;lon;timestamp;P1;durP1;ratioP1;P2;durP2;ratioP2
21507;SDS011;10915;54.352;9.074;2023-08-06T00:01:14;9.40;;;3.83;;
21507;SDS011;10915;54.352;9.074;2023-08-06T00:03:40;8.70;;;3.73;;
21507;SDS011;10915;54.352;9.074;2023-08-06T00:06:05;6.87;;;4.07;;
21507;SDS011;10915;54.352;9.074;2023-08-06T00:08:31;6.77;;;3.67;;
21507;SDS011;10915;54.352;9.074;2023-08-06T00:10:57;5.30;;;3.60;;
21507;SDS011;10915;54.352;9.074;2023-08-06T00:13:23;6.47;;;3.73;;
21507;SDS011;10915;54.352;9.074;2023-08-06T00:15:48;7.83;;;3.97;;
21507;SDS011;10915;54.352;9.074;2023-08-06T00:18:14;4.37;;;3.40;;
21507;SDS011;10915;54.352;9.074;2023-08-06T00:20:40;6.53;;;3.50;;
21507;SDS011;10915;54.352;9.074;2023-08-06T00:23:06;7.40;;;3.87;;
21507;SDS011;10915;54.352;9.074;2023-08-06T00:25:33;8.90;;;3.20;;
21507;SDS011;10915;54.352;9.074;2023-08-06T00:27:58;6.37;;;3.43;;
21507;SDS011;10915;54.352;9.074;2023-08-06T00:30:24;10.57;;;4.30;;
21507;SDS011;10915;54.352;9.074;2023-08-06T00:32:50;7.30;;;3.20;;
21507;SDS011;10915;54.352;9.074;2023-08-06T00:35:15;6.83;;;3.30;;
21507;SDS011;10915;54.352;9.074;2023-08-06T00:37:41;9.77;;;4.00;;
21507;SDS011;10915;54.352;9.074;2023-08-06T00:40:07;6.07;;;3.50;;
21507;SDS011;10915;54.352;9.074;2023-08-06T00:42:33;7.27;;;3.67;;
21507;SDS011;10915;54.352;9.074;2023-08-06T00:45:00;8.87;;;4.13;;
21507;SDS011;10915;54.352;9.074;2023-08-06T00:47:26;4.80;;;3.30;;
21507;SDS011;10915;54.352;9.074;2023-08-06T00:49:51;6.93;;;3.20;;
21507;SDS011;10915;54.352;9.074;2023-08-06T00:52:17;5.17;;;3.43;;
21507;SDS011;10915;54.352;9.074;2023-08-06T00:54:43;7.40;;;3.80;;
21507;SDS011;10915;54.352;9.074;2023-08-06T00:57:09;8.53;;;3.93;;
21507;SDS011;10915;54.352;9.074;2023-08-06T00:59:35;7.90;;;4.00;;
21507;SDS011;10915;54.352;9.074;2023-08-06T01:02:01;8.33;;;3.90;;
21507;SDS011;10915;54.352;9.074;2023-08-06T01:04:27;5.30;;;3.53;;
21507;SDS011;10915;54.352;9.074;2023-08-06T01:12:25;7.50;;;4.17;;
21507;SDS011;10915;54.352;9.074;2023-08-06T01:17:47;6.20;;;3.93;;
21507;SDS011;10915;54.352;9.074;2023-08-06T01:20:14;10.20;;;4.27;;
21507;SDS011;10915;54.352;9.074;2023-08-06T01:22:40;6.90;;;4.67;;
21507;SDS011;10915;54.352;9.074;2023-08-06T01:25:26;8.60;;;4.10;;
21507;SDS011;10915;54.352;9.074;2023-08-06T01:28:27;5.20;;;3.97;;
21507;SDS011;10915;54.352;9.074;2023-08-06T01:30:59;9.47;;;5.10;;
21507;SDS011;10915;54.352;9.074;2023-08-06T01:33:56;9.50;;;4.83;;
21507;SDS011;10915;54.352;9.074;2023-08-06T01:36:31;5.33;;;4.30;;
21507;SDS011;10915;54.352;9.074;2023-08-06T01:39:17;7.43;;;4.73;;
21507;SDS011;10915;54.352;9.074;2023-08-06T01:42:09;8.27;;;4.50;;
21507;SDS011;10915;54.352;9.074;2023-08-06T01:45:10;10.03;;;5.80;;
21507;SDS011;10915;54.352;9.074;2023-08-06T01:50:53;9.70;;;4.80;;
21507;SDS011;10915;54.352;9.074;2023-08-06T01:53:32;9.70;;;5.23;;
21507;SDS011;10915;54.352;9.074;2023-08-06T02:02:10;8.00;;;4.63;;
21507;SDS011;10915;54.352;9.074;2023-08-06T02:05:05;10.53;;;5.17;;
21507;SDS011;10915;54.352;9.074;2023-08-06T02:08:03;7.30;;;5.60;;
21507;SDS011;10915;54.352;9.074;2023-08-06T04:22:19;9.00;;;7.60;;
21507;SDS011;10915;54.352;9.074;2023-08-06T04:25:38;10.73;;;7.40;;
21507;SDS011;10915;54.352;9.074;2023-08-06T04:28:54;12.40;;;8.63;;
21507;SDS011;10915;54.352;9.074;2023-08-06T04:31:45;10.83;;;7.83;;
21507;SDS011;10915;54.352;9.074;2023-08-06T04:44:55;13.23;;;8.53;;
21507;SDS011;10915;54.352;9.074;2023-08-06T04:48:16;9.77;;;7.80;;
21507;SDS011;10915;54.352;9.074;2023-08-06T04:54:59;9.80;;;8.03;;
21507;SDS011;10915;54.352;9.074;2023-08-06T04:57:40;10.20;;;7.63;;
21507;SDS011;10915;54.352;9.074;2023-08-06T05:04:13;8.60;;;6.87;;
21507;SDS011;10915;54.352;9.074;2023-08-06T05:07:07;10.60;;;7.70;;
21507;SDS011;10915;54.352;9.074;2023-08-06T05:09:35;9.60;;;7.20;;
21507;SDS011;10915;54.352;9.074;2023-08-06T05:12:03;9.27;;;6.57;;
21507;SDS011;10915;54.352;9.074;2023-08-06T05:14:29;10.60;;;7.97;;
21507;SDS011;10915;54.352;9.074;2023-08-06T05:20:21;9.33;;;7.07;;
21507;SDS011;10915;54.352;9.074;2023-08-06T05:22:47;10.40;;;7.23;;
21507;SDS011;10915;54.352;9.074;2023-08-06T05:25:13;9.23;;;7.07;;
21507;SDS011;10915;54.352;9.074;2023-08-06T05:27:39;8.50;;;7.13;;
21507;SDS011;10915;54.352;9.074;2023-08-06T05:30:05;11.60;;;7.27;;
21507;SDS011;10915;54.352;9.074;2023-08-06T05:32:31;9.07;;;7.10;;
21507;SDS011;10915;54.352;9.074;2023-08-06T05:34:57;10.83;;;6.80;;
21507;SDS011;10915;54.352;9.074;2023-08-06T05:37:22;9.93;;;6.80;;
21507;SDS011;10915;54.352;9.074;2023-08-06T05:39:48;10.03;;;7.40;;
21507;SDS011;10915;54.352;9.074;2023-08-06T05:42:13;15.57;;;6.77;;
21507;SDS011;10915;54.352;9.074;2023-08-06T05:44:39;10.10;;;7.30;;
21507;SDS011;10915;54.352;9.074;2023-08-06T05:47:05;12.23;;;7.10;;
21507;SDS011;10915;54.352;9.074;2023-08-06T05:49:30;11.63;;;6.83;;
21507;SDS011;10915;54.352;9.074;2023-08-06T05:51:56;11.27;;;7.10;;
21507;SDS011;10915;54.352;9.074;2023-08-06T05:54:21;10.33;;;6.77;;
21507;SDS011;10915;54.352;9.074;2023-08-06T05:56:47;11.77;;;7.60;;
21507;SDS011;10915;54.352;9.074;2023-08-06T05:59:13;10.77;;;6.50;;
21507;SDS011;10915;54.352;9.074;2023-08-06T06:01:38;10.10;;;6.50;;
21507;SDS011;10915;54.352;9.074;2023-08-06T06:04:04;12.90;;;6.63;;
21507;SDS011;10915;54.352;9.074;2023-08-06T06:06:29;12.77;;;6.90;;
21507;SDS011;10915;54.352;9.074;2023-08-06T06:08:55;11.00;;;7.53;;
21507;SDS011;10915;54.352;9.074;2023-08-06T06:11:21;10.97;;;6.93;;
21507;SDS011;10915;54.352;9.074;2023-08-06T06:13:48;11.17;;;7.70;;
21507;SDS011;10915;54.352;9.074;2023-08-06T06:16:17;15.50;;;7.90;;
21507;SDS011;10915;54.352;9.074;2023-08-06T06:18:43;10.77;;;7.60;;
21507;SDS011;10915;54.352;9.074;2023-08-06T06:21:09;10.77;;;6.83;;
21507;SDS011;10915;54.352;9.074;2023-08-06T06:23:35;11.80;;;8.10;;
21507;SDS011;10915;54.352;9.074;2023-08-06T06:26:01;11.07;;;7.50;;
21507;SDS011;10915;54.352;9.074;2023-08-06T06:28:26;11.60;;;7.53;;
21507;SDS011;10915;54.352;9.074;2023-08-06T06:30:52;11.07;;;7.50;;
21507;SDS011;10915;54.352;9.074;2023-08-06T06:33:17;11.80;;;7.10;;
21507;SDS011;10915;54.352;9.074;2023-08-06T06:35:43;10.43;;;7.40;;
21507;SDS011;10915;54.352;9.074;2023-08-06T06:38:09;9.67;;;7.63;;
21507;SDS011;10915;54.352;9.074;2023-08-06T06:40:34;12.00;;;7.50;;
21507;SDS011;10915;54.352;9.074;2023-08-06T06:43:00;14.73;;;7.33;;
21507;SDS011;10915;54.352;9.074;2023-08-06T06:45:25;11.97;;;7.33;;
21507;SDS011;10915;54.352;9.074;2023-08-06T06:47:51;11.70;;;8.00;;
21507;SDS011;10915;54.352;9.074;2023-08-06T06:50:16;11.37;;;7.60;;
21507;SDS011;10915;54.352;9.074;2023-08-06T06:52:42;12.30;;;7.33;;
21507;SDS011;10915;54.352;9.074;2023-08-06T06:55:08;10.47;;;7.63;;
21507;SDS011;10915;54.352;9.074;2023-08-06T06:57:33;9.93;;;6.93;;
21507;SDS011;10915;54.352;9.074;2023-08-06T06:59:59;10.43;;;7.17;;
21507;SDS011;10915;54.352;9.074;2023-08-06T07:02:25;10.50;;;7.43;;
21507;SDS011;10915;54.352;9.074;2023-08-06T07:04:50;10.63;;;7.50;;
21507;SDS011;10915;54.352;9.074;2023-08-06T07:07:16;12.40;;;7.83;;
21507;SDS011;10915;54.352;9.074;2023-08-06T07:09:41;13.63;;;7.67;;
21507;SDS011;10915;54.352;9.074;2023-08-06T07:12:07;14.37;;;7.87;;
21507;SDS011;10915;54.352;9.074;2023-08-06T07:14:33;11.33;;;7.57;;
21507;SDS011;10915;54.352;9.074;2023-08-06T07:16:58;12.03;;;8.10;;
21507;SDS011;10915;54.352;9.074;2023-08-06T07:19:24;12.57;;;7.60;;
21507;SDS011;10915;54.352;9.074;2023-08-06T07:21:50;13.77;;;8.17;;
21507;SDS011;10915;54.352;9.074;2023-08-06T07:24:15;10.93;;;7.60;;
21507;SDS011;10915;54.352;9.074;2023-08-06T07:26:41;11.53;;;7.63;;
21507;SDS011;10915;54.352;9.074;2023-08-06T07:29:07;11.47;;;7.97;;
21507;SDS011;10915;54.352;9.074;2023-08-06T07:31:32;11.20;;;8.07;;
21507;SDS011;10915;54.352;9.074;2023-08-06T07:33:58;15.93;;;8.03;;
21507;SDS011;10915;54.352;9.074;2023-08-06T07:36:24;15.93;;;8.63;;
21507;SDS011;10915;54.352;9.074;2023-08-06T07:38:49;11.67;;;8.10;;
21507;SDS011;10915;54.352;9.074;2023-08-06T07:41:20;11.43;;;7.60;;
21507;SDS011;10915;54.352;9.074;2023-08-06T07:43:46;13.83;;;8.57;;
21507;SDS011;10915;54.352;9.074;2023-08-06T07:46:12;11.40;;;8.37;;
21507;SDS011;10915;54.352;9.074;2023-08-06T07:48:38;12.07;;;7.63;;
21507;SDS011;10915;54.352;9.074;2023-08-06T07:51:04;10.63;;;7.13;;
21507;SDS011;10915;54.352;9.074;2023-08-06T07:53:30;16.67;;;8.97;;
21507;SDS011;10915;54.352;9.074;2023-08-06T07:55:55;14.43;;;7.73;;
21507;SDS011;10915;54.352;9.074;2023-08-06T07:58:22;13.77;;;7.73;;
21507;SDS011;10915;54.352;9.074;2023-08-06T08:00:49;11.90;;;8.87;;
21507;SDS011;10915;54.352;9.074;2023-08-06T08:03:15;11.73;;;8.50;;
21507;SDS011;10915;54.352;9.074;2023-08-06T08:05:41;13.83;;;7.70;;
21507;SDS011;10915;54.352;9.074;2023-08-06T08:08:08;14.10;;;7.80;;
21507;SDS011;10915;54.352;9.074;2023-08-06T08:10:34;12.63;;;7.73;;
21507;SDS011;10915;54.352;9.074;2023-08-06T08:13:03;11.37;;;7.53;;
21507;SDS011;10915;54.352;9.074;2023-08-06T08:15:29;10.90;;;7.30;;
21507;SDS011;10915;54.352;9.074;2023-08-06T08:17:57;15.10;;;7.63;;
21507;SDS011;10915;54.352;9.074;2023-08-06T08:20:23;11.20;;;7.20;;
21507;SDS011;10915;54.352;9.074;2023-08-06T08:22:48;12.10;;;6.67;;
21507;SDS011;10915;54.352;9.074;2023-08-06T08:25:15;9.13;;;6.50;;
21507;SDS011;10915;54.352;9.074;2023-08-06T08:27:41;10.57;;;6.27;;
21507;SDS011;10915;54.352;9.074;2023-08-06T08:30:07;11.23;;;6.30;;
21507;SDS011;10915;54.352;9.074;2023-08-06T08:32:33;9.67;;;6.40;;
21507;SDS011;10915;54.352;9.074;2023-08-06T08:34:58;10.07;;;6.10;;
21507;SDS011;10915;54.352;9.074;2023-08-06T08:37:24;11.13;;;6.20;;
21507;SDS011;10915;54.352;9.074;2023-08-06T08:39:50;11.33;;;5.40;;
21507;SDS011;10915;54.352;9.074;2023-08-06T08:42:15;9.87;;;6.07;;
21507;SDS011;10915;54.352;9.074;2023-08-06T08:44:42;8.87;;;5.97;;
21507;SDS011;10915;54.352;9.074;2023-08-06T08:47:08;10.17;;;5.90;;
21507;SDS011;10915;54.352;9.074;2023-08-06T08:49:35;8.50;;;4.93;;
21507;SDS011;10915;54.352;9.074;2023-08-06T08:52:02;9.77;;;5.10;;
21507;SDS011;10915;54.352;9.074;2023-08-06T08:54:31;9.23;;;5.27;;
21507;SDS011;10915;54.352;9.074;2023-08-06T08:56:58;10.70;;;5.63;;
21507;SDS011;10915;54.352;9.074;2023-08-06T08:59:24;5.67;;;4.47;;
21507;SDS011;10915;54.352;9.074;2023-08-06T09:01:51;12.20;;;5.10;;
21507;SDS011;10915;54.352;9.074;2023-08-06T09:04:19;7.30;;;4.30;;
21507;SDS011;10915;54.352;9.074;2023-08-06T09:06:47;9.70;;;4.37;;
21507;SDS011;10915;54.352;9.074;2023-08-06T09:09:17;6.00;;;4.30;;
21507;SDS011;10915;54.352;9.074;2023-08-06T09:12:00;11.80;;;4.83;;
21507;SDS011;10915;54.352;9.074;2023-08-06T09:14:27;8.33;;;5.07;;
21507;SDS011;10915;54.352;9.074;2023-08-06T09:16:53;8.70;;;4.83;;
21507;SDS011;10915;54.352;9.074;2023-08-06T09:19:19;6.93;;;3.97;;
21507;SDS011;10915;54.352;9.074;2023-08-06T09:21:45;7.37;;;3.80;;
21507;SDS011;10915;54.352;9.074;2023-08-06T09:24:14;7.37;;;3.97;;
21507;SDS011;10915;54.352;9.074;2023-08-06T09:26:41;7.27;;;4.30;;
21507;SDS011;10915;54.352;9.074;2023-08-06T09:29:08;8.20;;;3.90;;
21507;SDS011;10915;54.352;9.074;2023-08-06T09:31:40;7.47;;;3.67;;
21507;SDS011;10915;54.352;9.074;2023-08-06T09:34:20;8.83;;;4.10;;
21507;SDS011;10915;54.352;9.074;2023-08-06T09:36:48;7.47;;;3.80;;
21507;SDS011;10915;54.352;9.074;2023-08-06T09:39:28;6.63;;;3.63;;
21507;SDS011;10915;54.352;9.074;2023-08-06T09:42:01;7.07;;;3.90;;
21507;SDS011;10915;54.352;9.074;2023-08-06T09:44:27;9.47;;;4.03;;
21507;SDS011;10915;54.352;9.074;2023-08-06T09:46:56;6.37;;;3.20;;
21507;SDS011;10915;54.352;9.074;2023-08-06T09:51:57;6.70;;;3.00;;
21507;SDS011;10915;54.352;9.074;2023-08-06T09:54:24;4.50;;;2.40;;
21507;SDS011;10915;54.352;9.074;2023-08-06T09:56:52;6.73;;;2.50;;
21507;SDS011;10915;54.352;9.074;2023-08-06T09:59:18;5.17;;;3.23;;
21507;SDS011;10915;54.352;9.074;2023-08-06T10:01:44;6.03;;;2.73;;
21507;SDS011;10915;54.352;9.074;2023-08-06T10:04:11;6.60;;;2.90;;
21507;SDS011;10915;54.352;9.074;2023-08-06T10:06:41;6.17;;;2.90;;
21507;SDS011;10915;54.352;9.074;2023-08-06T10:09:07;6.53;;;3.00;;
21507;SDS011;10915;54.352;9.074;2023-08-06T10:11:34;6.40;;;3.27;;
21507;SDS011;10915;54.352;9.074;2023-08-06T10:14:24;6.37;;;3.50;;
21507;SDS011;10915;54.352;9.074;2023-08-06T10:16:52;5.57;;;3.50;;
21507;SDS011;10915;54.352;9.074;2023-08-06T10:19:19;6.37;;;3.10;;
21507;SDS011;10915;54.352;9.074;2023-08-06T10:27:28;7.77;;;3.20;;
21507;SDS011;10915;54.352;9.074;2023-08-06T10:29:56;6.47;;;3.37;;
21507;SDS011;10915;54.352;9.074;2023-08-06T10:32:51;7.13;;;3.50;;
21507;SDS011;10915;54.352;9.074;2023-08-06T10:35:36;6.63;;;3.53;;
21507;SDS011;10915;54.352;9.074;2023-08-06T10:38:03;6.60;;;3.70;;
21507;SDS011;10915;54.352;9.074;2023-08-06T10:40:30;7.00;;;3.40;;
21507;SDS011;10915;54.352;9.074;2023-08-06T10:43:00;6.40;;;3.60;;
21507;SDS011;10915;54.352;9.074;2023-08-06T10:45:26;8.47;;;3.67;;
21507;SDS011;10915;54.352;9.074;2023-08-06T10:47:54;6.13;;;3.60;;
21507;SDS011;10915;54.352;9.074;2023-08-06T10:50:23;7.57;;;4.20;;
21507;SDS011;10915;54.352;9.074;2023-08-06T10:52:50;8.07;;;3.90;;
21507;SDS011;10915;54.352;9.074;2023-08-06T10:55:26;6.03;;;4.30;;
21507;SDS011;10915;54.352;9.074;2023-08-06T10:57:54;8.30;;;4.33;;
21507;SDS011;10915;54.352;9.074;2023-08-06T11:00:20;9.17;;;4.07;;
21507;SDS011;10915;54.352;9.074;2023-08-06T11:02:51;9.03;;;4.67;;
21507;SDS011;10915;54.352;9.074;2023-08-06T11:05:17;7.03;;;3.50;;
21507;SDS011;10915;54.352;9.074;2023-08-06T11:07:43;6.20;;;3.37;;
21507;SDS011;10915;54.352;9.074;2023-08-06T11:10:10;5.93;;;3.80;;
21507;SDS011;10915;54.352;9.074;2023-08-06T11:12:37;8.97;;;3.43;;
21507;SDS011;10915;54.352;9.074;2023-08-06T11:15:04;5.47;;;3.70;;
21507;SDS011;10915;54.352;9.074;2023-08-06T11:17:31;6.43;;;3.10;;
21507;SDS011;10915;54.352;9.074;2023-08-06T11:20:04;5.83;;;3.03;;
21507;SDS011;10915;54.352;9.074;2023-08-06T11:25:22;5.13;;;2.83;;
21507;SDS011;10915;54.352;9.074;2023-08-06T12:00:29;5.40;;;3.47;;
21507;SDS011;10915;54.352;9.074;2023-08-06T12:03:04;7.67;;;4.13;;
21507;SDS011;10915;54.352;9.074;2023-08-06T12:11:59;6.23;;;3.87;;
21507;SDS011;10915;54.352;9.074;2023-08-06T12:24:07;6.97;;;3.30;;
21507;SDS011;10915;54.352;9.074;2023-08-06T12:30:17;6.13;;;3.73;;
21507;SDS011;10915;54.352;9.074;2023-08-06T12:33:01;5.27;;;3.23;;
21507;SDS011;10915;54.352;9.074;2023-08-06T12:36:06;6.67;;;3.23;;
21507;SDS011;10915;54.352;9.074;2023-08-06T12:42:18;8.13;;;3.10;;
21507;SDS011;10915;54.352;9.074;2023-08-06T12:45:10;8.30;;;3.50;;
21507;SDS011;10915;54.352;9.074;2023-08-06T12:48:10;6.03;;;3.20;;
21507;SDS011;10915;54.352;9.074;2023-08-06T12:54:12;5.40;;;3.47;;
21507;SDS011;10915;54.352;9.074;2023-08-06T13:03:45;5.13;;;3.27;;
21507;SDS011;10915;54.352;9.074;2023-08-06T13:12:11;6.20;;;3.37;;
21507;SDS011;10915;54.352;9.074;2023-08-06T13:14:52;7.03;;;3.13;;
21507;SDS011;10915;54.352;9.074;2023-08-06T13:17:34;9.57;;;3.43;;
21507;SDS011;10915;54.352;9.074;2023-08-06T13:23:20;9.97;;;3.10;;
21507;SDS011;10915;54.352;9.074;2023-08-06T13:25:55;5.77;;;2.67;;
21507;SDS011;10915;54.352;9.074;2023-08-06T13:28:21;4.93;;;2.43;;
21507;SDS011;10915;54.352;9.074;2023-08-06T13:30:53;5.17;;;2.67;;
21507;SDS011;10915;54.352;9.074;2023-08-06T13:33:18;4.17;;;2.53;;
21507;SDS011;10915;54.352;9.074;2023-08-06T13:35:44;4.07;;;2.70;;
21507;SDS011;10915;54.352;9.074;2023-08-06T13:38:10;5.70;;;2.40;;
21507;SDS011;10915;54.352;9.074;2023-08-06T13:40:45;7.00;;;2.73;;
21507;SDS011;10915;54.352;9.074;2023-08-06T13:43:11;6.70;;;2.60;;
21507;SDS011;10915;54.352;9.074;2023-08-06T13:46:18;5.70;;;2.63;;
21507;SDS011;10915;54.352;9.074;2023-08-06T13:48:53;6.77;;;2.33;;
21507;SDS011;10915;54.352;9.074;2023-08-06T13:51:25;3.50;;;2.03;;
21507;SDS011;10915;54.352;9.074;2023-08-06T13:53:54;5.10;;;2.53;;
21507;SDS011;10915;54.352;9.074;2023-08-06T14:03:23;5.57;;;2.20;;
21507;SDS011;10915;54.352;9.074;2023-08-06T14:09:30;4.70;;;2.23;;
21507;SDS011;10915;54.352;9.074;2023-08-06T14:18:36;3.23;;;2.07;;
21507;SDS011;10915;54.352;9.074;2023-08-06T14:21:06;5.60;;;2.30;;
21507;SDS011;10915;54.352;9.074;2023-08-06T14:23:37;4.13;;;2.23;;
21507;SDS011;10915;54.352;9.074;2023-08-06T14:26:06;3.80;;;1.93;;
21507;SDS011;10915;54.352;9.074;2023-08-06T14:28:32;5.77;;;2.07;;
21507;SDS011;10915;54.352;9.074;2023-08-06T14:31:29;4.10;;;2.00;;
21507;SDS011;10915;54.352;9.074;2023-08-06T14:33:55;2.90;;;1.90;;
21507;SDS011;10915;54.352;9.074;2023-08-06T14:36:27;3.57;;;2.07;;
21507;SDS011;10915;54.352;9.074;2023-08-06T14:39:01;6.63;;;2.33;;
21507;SDS011;10915;54.352;9.074;2023-08-06T14:41:27;5.53;;;2.07;;
21507;SDS011;10915;54.352;9.074;2023-08-06T14:43:58;4.70;;;2.03;;
21507;SDS011;10915;54.352;9.074;2023-08-06T14:46:24;6.23;;;2.37;;
21507;SDS011;10915;54.352;9.074;2023-08-06T14:48:53;3.87;;;1.97;;
21507;SDS011;10915;54.352;9.074;2023-08-06T14:51:21;3.77;;;1.90;;
21507;SDS011;10915;54.352;9.074;2023-08-06T14:53:47;5.17;;;2.20;;
21507;SDS011;10915;54.352;9.074;2023-08-06T14:56:25;4.10;;;2.10;;
21507;SDS011;10915;54.352;9.074;2023-08-06T14:59:04;4.40;;;1.73;;
21507;SDS011;10915;54.352;9.074;2023-08-06T15:01:30;6.30;;;2.33;;
21507;SDS011;10915;54.352;9.074;2023-08-06T15:04:01;3.27;;;2.00;;
21507;SDS011;10915;54.352;9.074;2023-08-06T15:06:31;4.60;;;2.03;;
21507;SDS011;10915;54.352;9.074;2023-08-06T15:09:00;6.37;;;1.90;;
21507;SDS011;10915;54.352;9.074;2023-08-06T15:11:28;5.50;;;1.83;;
21507;SDS011;10915;54.352;9.074;2023-08-06T15:13:54;4.33;;;1.90;;
21507;SDS011;10915;54.352;9.074;2023-08-06T15:16:19;5.10;;;2.10;;
21507;SDS011;10915;54.352;9.074;2023-08-06T15:18:51;3.70;;;2.13;;
21507;SDS011;10915;54.352;9.074;2023-08-06T15:21:16;5.87;;;2.30;;
21507;SDS011;10915;54.352;9.074;2023-08-06T15:23:45;3.53;;;2.23;;
21507;SDS011;10915;54.352;9.074;2023-08-06T15:26:10;4.27;;;2.00;;
21507;SDS011;10915;54.352;9.074;2023-08-06T15:28:36;5.13;;;2.10;;
21507;SDS011;10915;54.352;9.074;2023-08-06T15:31:02;2.97;;;2.00;;
21507;SDS011;10915;54.352;9.074;2023-08-06T15:33:30;4.57;;;2.13;;
21507;SDS011;10915;54.352;9.074;2023-08-06T15:35:56;4.50;;;2.13;;
21507;SDS011;10915;54.352;9.074;2023-08-06T15:38:27;4.37;;;1.80;;
21507;SDS011;10915;54.352;9.074;2023-08-06T15:41:00;4.53;;;2.03;;
21507;SDS011;10915;54.352;9.074;2023-08-06T15:43:25;4.37;;;2.03;;
21507;SDS011;10915;54.352;9.074;2023-08-06T15:45:51;7.93;;;2.43;;
21507;SDS011;10915;54.352;9.074;2023-08-06T15:48:17;6.90;;;2.30;;
21507;SDS011;10915;54.352;9.074;2023-08-06T15:50:42;6.13;;;2.50;;
21507;SDS011;10915;54.352;9.074;2023-08-06T15:53:08;4.13;;;2.00;;
21507;SDS011;10915;54.352;9.074;2023-08-06T15:55:39;5.10;;;2.23;;
21507;SDS011;10915;54.352;9.074;2023-08-06T15:58:05;2.80;;;2.20;;
21507;SDS011;10915;54.352;9.074;2023-08-06T16:00:32;6.83;;;2.10;;
21507;SDS011;10915;54.352;9.074;2023-08-06T16:02:58;6.13;;;2.60;;
21507;SDS011;10915;54.352;9.074;2023-08-06T16:05:34;5.03;;;2.40;;
21507;SDS011;10915;54.352;9.074;2023-08-06T16:08:07;4.53;;;2.50;;
21507;SDS011;10915;54.352;9.074;2023-08-06T16:10:36;4.50;;;2.57;;
21507;SDS011;10915;54.352;9.074;2023-08-06T16:13:05;4.33;;;2.73;;
21507;SDS011;10915;54.352;9.074;2023-08-06T16:15:31;4.83;;;2.47;;
21507;SDS011;10915;54.352;9.074;2023-08-06T16:17:56;4.07;;;2.70;;
21507;SDS011;10915;54.352;9.074;2023-08-06T16:20:22;4.80;;;2.47;;
21507;SDS011;10915;54.352;9.074;2023-08-06T16:22:48;4.83;;;2.47;;
21507;SDS011;10915;54.352;9.074;2023-08-06T16:25:28;3.63;;;2.10;;
21507;SDS011;10915;54.352;9.074;2023-08-06T16:28:01;6.50;;;2.70;;
21507;SDS011;10915;54.352;9.074;2023-08-06T16:30:26;6.27;;;2.60;;
21507;SDS011;10915;54.352;9.074;2023-08-06T16:36:20;4.90;;;2.87;;
21507;SDS011;10915;54.352;9.074;2023-08-06T16:38:45;3.80;;;2.60;;
21507;SDS011;10915;54.352;9.074;2023-08-06T16:41:14;4.40;;;1.87;;
21507;SDS011;10915;54.352;9.074;2023-08-06T16:43:40;5.07;;;2.57;;
21507;SDS011;10915;54.352;9.074;2023-08-06T16:46:08;4.10;;;2.67;;
21507;SDS011;10915;54.352;9.074;2023-08-06T16:48:34;4.17;;;2.30;;
21507;SDS011;10915;54.352;9.074;2023-08-06T16:51:01;4.10;;;2.40;;
21507;SDS011;10915;54.352;9.074;2023-08-06T16:53:36;3.33;;;2.10;;
21507;SDS011;10915;54.352;9.074;2023-08-06T16:56:16;3.83;;;2.30;;
21507;SDS011;10915;54.352;9.074;2023-08-06T16:58:42;3.33;;;2.20;;
21507;SDS011;10915;54.352;9.074;2023-08-06T17:01:08;4.07;;;2.50;;
21507;SDS011;10915;54.352;9.074;2023-08-06T17:03:34;6.70;;;2.70;;
21507;SDS011;10915;54.352;9.074;2023-08-06T17:06:00;3.60;;;2.37;;
21507;SDS011;10915;54.352;9.074;2023-08-06T17:08:29;2.40;;;2.00;;
21507;SDS011;10915;54.352;9.074;2023-08-06T17:10:59;2.80;;;1.87;;
21507;SDS011;10915;54.352;9.074;2023-08-06T17:13:29;3.37;;;2.20;;
21507;SDS011;10915;54.352;9.074;2023-08-06T17:15:56;5.60;;;2.20;;
21507;SDS011;10915;54.352;9.074;2023-08-06T17:18:22;4.07;;;2.27;;
21507;SDS011;10915;54.352;9.074;2023-08-06T17:20:48;2.90;;;1.90;;
21507;SDS011;10915;54.352;9.074;2023-08-06T17:23:14;3.10;;;1.90;;
21507;SDS011;10915;54.352;9.074;2023-08-06T17:25:40;5.23;;;1.70;;
21507;SDS011;10915;54.352;9.074;2023-08-06T17:28:06;2.50;;;1.83;;
21507;SDS011;10915;54.352;9.074;2023-08-06T17:30:32;2.57;;;2.00;;
21507;SDS011;10915;54.352;9.074;2023-08-06T17:32:57;2.50;;;1.67;;
21507;SDS011;10915;54.352;9.074;2023-08-06T17:35:23;3.80;;;2.00;;
21507;SDS011;10915;54.352;9.074;2023-08-06T17:37:49;3.53;;;1.90;;
21507;SDS011;10915;54.352;9.074;2023-08-06T17:40:14;2.33;;;1.60;;
21507;SDS011;10915;54.352;9.074;2023-08-06T17:42:40;3.93;;;1.80;;
21507;SDS011;10915;54.352;9.074;2023-08-06T17:45:05;3.00;;;1.77;;
21507;SDS011;10915;54.352;9.074;2023-08-06T17:47:31;5.60;;;2.13;;
21507;SDS011;10915;54.352;9.074;2023-08-06T17:49:57;3.33;;;1.93;;
21507;SDS011;10915;54.352;9.074;2023-08-06T17:52:23;2.43;;;1.90;;
21507;SDS011;10915;54.352;9.074;2023-08-06T17:54:48;3.67;;;1.77;;
21507;SDS011;10915;54.352;9.074;2023-08-06T17:57:14;2.20;;;1.50;;
21507;SDS011;10915;54.352;9.074;2023-08-06T17:59:40;3.63;;;1.83;;
21507;SDS011;10915;54.352;9.074;2023-08-06T18:02:05;2.77;;;1.67;;
21507;SDS011;10915;54.352;9.074;2023-08-06T18:04:31;3.07;;;1.50;;
21507;SDS011;10915;54.352;9.074;2023-08-06T18:06:57;3.97;;;1.70;;
21507;SDS011;10915;54.352;9.074;2023-08-06T18:09:22;4.23;;;1.67;;
21507;SDS011;10915;54.352;9.074;2023-08-06T18:11:48;3.17;;;1.47;;
21507;SDS011;10915;54.352;9.074;2023-08-06T18:14:14;3.77;;;1.60;;
21507;SDS011;10915;54.352;9.074;2023-08-06T18:16:39;5.97;;;1.57;;
21507;SDS011;10915;54.352;9.074;2023-08-06T18:19:05;5.13;;;1.80;;
21507;SDS011;10915;54.352;9.074;2023-08-06T18:21:30;4.17;;;1.70;;
21507;SDS011;10915;54.352;9.074;2023-08-06T18:23:56;2.57;;;1.37;;
21507;SDS011;10915;54.352;9.074;2023-08-06T18:26:22;3.27;;;1.67;;
21507;SDS011;10915;54.352;9.074;2023-08-06T18:28:47;2.87;;;1.50;;
21507;SDS011;10915;54.352;9.074;2023-08-06T18:31:13;2.30;;;1.33;;
21507;SDS011;10915;54.352;9.074;2023-08-06T18:33:40;4.90;;;1.80;;
21507;SDS011;10915;54.352;9.074;2023-08-06T18:36:06;3.50;;;1.73;;
21507;SDS011;10915;54.352;9.074;2023-08-06T18:38:31;5.27;;;1.80;;
21507;SDS011;10915;54.352;9.074;2023-08-06T18:41:00;2.80;;;1.80;;
21507;SDS011;10915;54.352;9.074;2023-08-06T18:43:26;3.00;;;1.50;;
21507;SDS011;10915;54.352;9.074;2023-08-06T18:45:52;6.17;;;1.97;;
21507;SDS011;10915;54.352;9.074;2023-08-06T18:48:20;7.37;;;1.87;;
21507;SDS011;10915;54.352;9.074;2023-08-06T18:50:45;4.13;;;1.63;;
21507;SDS011;10915;54.352;9.074;2023-08-06T18:53:11;3.50;;;2.00;;
21507;SDS011;10915;54.352;9.074;2023-08-06T18:55:44;5.20;;;1.63;;
21507;SDS011;10915;54.352;9.074;2023-08-06T18:58:12;3.93;;;2.10;;
21507;SDS011;10915;54.352;9.074;2023-08-06T19:00:38;6.63;;;1.67;;
21507;SDS011;10915;54.352;9.074;2023-08-06T19:03:04;4.60;;;1.83;;
21507;SDS011;10915;54.352;9.074;2023-08-06T19:05:30;5.37;;;2.27;;
21507;SDS011;10915;54.352;9.074;2023-08-06T19:07:56;4.17;;;1.60;;
21507;SDS011;10915;54.352;9.074;2023-08-06T19:10:22;4.37;;;1.80;;
21507;SDS011;10915;54.352;9.074;2023-08-06T19:12:49;6.03;;;2.13;;
21507;SDS011;10915;54.352;9.074;2023-08-06T19:15:15;5.73;;;2.13;;
21507;SDS011;10915;54.352;9.074;2023-08-06T19:17:41;2.90;;;1.73;;
21507;SDS011;10915;54.352;9.074;2023-08-06T19:20:07;5.20;;;1.97;;
21507;SDS011;10915;54.352;9.074;2023-08-06T19:22:35;2.70;;;1.80;;
21507;SDS011;10915;54.352;9.074;2023-08-06T19:25:00;2.97;;;1.57;;
21507;SDS011;10915;54.352;9.074;2023-08-06T19:27:26;2.50;;;1.60;;
21507;SDS011;10915;54.352;9.074;2023-08-06T19:29:52;4.57;;;1.90;;
21507;SDS011;10915;54.352;9.074;2023-08-06T19:32:18;3.33;;;1.40;;
21507;SDS011;10915;54.352;9.074;2023-08-06T19:34:43;4.37;;;1.50;;
21507;SDS011;10915;54.352;9.074;2023-08-06T19:37:09;2.67;;;1.70;;